Fairlee, VT (05045)

5:25 PM EDT on March 29, 2015 (GMT -0400)
Bill's Place | | Change Station
CLOSE
Current Station
Personal Weather Station
Location: Orford, NH
Elevation: 407 ft
Nearby Weather Stations

Elev 407 ft 43.90 °N, 72.14 °W | Updated 46 seconds ago

Clear
Clear
43.2 °F
Feels Like 43 °F
N
0.4
Wind Variable Wind from SSW
Gusts 2.5 mph

Today
High -- | Low -- °F
--% Chance of Precip.
Yesterday
High -- | Low -- °F
Precip. -- in
6:35 AM 7:11 PM
Waxing Gibbous, 74% visible
Pressure 30.09 in
Visibility 10.0 miles
Clouds Clear
Windchill 43 °F
Dew Point 6 °F
Humidity 21%
Rainfall 0.00 in
Snow Depth Not available.
UV 2 out of 12
Pollen 1.20 out of 12
Air Quality Not available.
Flu Activity Not available.
METAR KLEB 292053Z VRB03KT 10SM CLR 05/M16 A3006 RMK AO2 SLP188 T00501161 56027

More Conditions Fewer Conditions

Pressure 30.09 in
Visibility 10.0 miles
Clouds Clear
Windchill 43 °F
Dew Point 6 °F
Humidity 21%
Rainfall 0.00 in
Snow Depth Not available.
UV 2 out of 12
Pollen 1.20 out of 12
Air Quality Not available.
Flu Activity Not available.
METAR KLEB 292053Z VRB03KT 10SM CLR 05/M16 A3006 RMK AO2 SLP188 T00501161 56027

More Conditions Fewer Conditions

10-Day Weather Forecast

Almanac

Astronomy

Mar. 29, 2015 Rise Set
Actual Time
Civil Twilight
Nautical Twilight
Astronomical Twilight
Moon
Length of Visible Light
Length of Day
Tomorrow will be .
, % of the Moon is Illuminated

Today's Extremes

State Highs State Lows

Community

WunderPhotos

Upload Photos

1,809,353 photos uploaded!

WunderBlogs® & News

Nearby

Air Quality

  Air Quality AQ Index Pollutant
Not available.

Snow Depth

Station Depth Elevation

Earthquake Activity

City Distance Mag. Time & Date
Minimum magnitude displayed is 2.5.

Coastal Water Temperatures

Place Temperature

Stations

Nearby Weather Stations

Station Location Temp. Windchill Dew Point Humidity Wind Precip. Elev Updated Type